sensor_id;sensor_type;location;lat;lon;timestamp;temperature;humidity
29255;DHT22;16277;48.890;2.306;2023-08-17T00:14:14;24.70;99.90
29255;DHT22;16277;48.890;2.306;2023-08-17T00:29:19;24.70;99.90
29255;DHT22;16277;48.890;2.306;2023-08-17T00:44:23;24.60;99.90
29255;DHT22;16277;48.890;2.306;2023-08-17T00:59:28;24.30;99.90
29255;DHT22;16277;48.890;2.306;2023-08-17T01:14:47;24.60;99.90
29255;DHT22;16277;48.890;2.306;2023-08-17T01:29:54;24.40;99.90
29255;DHT22;16277;48.890;2.306;2023-08-17T01:44:59;24.40;99.90
29255;DHT22;16277;48.890;2.306;2023-08-17T02:00:05;24.40;99.90
29255;DHT22;16277;48.890;2.306;2023-08-17T02:15:16;24.30;99.90
29255;DHT22;16277;48.890;2.306;2023-08-17T02:30:21;24.20;99.90
29255;DHT22;16277;48.890;2.306;2023-08-17T02:45:26;24.20;99.90
29255;DHT22;16277;48.890;2.306;2023-08-17T03:00:30;24.00;99.90
29255;DHT22;16277;48.890;2.306;2023-08-17T03:15:35;24.10;99.90
29255;DHT22;16277;48.890;2.306;2023-08-17T03:30:43;24.00;99.90
29255;DHT22;16277;48.890;2.306;2023-08-17T03:45:47;23.70;99.90
29255;DHT22;16277;48.890;2.306;2023-08-17T04:00:53;23.50;99.90
29255;DHT22;16277;48.890;2.306;2023-08-17T04:16:04;23.60;99.90
29255;DHT22;16277;48.890;2.306;2023-08-17T04:31:09;23.50;99.90
29255;DHT22;16277;48.890;2.306;2023-08-17T04:46:16;23.50;99.90
29255;DHT22;16277;48.890;2.306;2023-08-17T05:01:21;23.10;99.90
29255;DHT22;16277;48.890;2.306;2023-08-17T05:16:26;23.30;99.90
29255;DHT22;16277;48.890;2.306;2023-08-17T05:31:32;23.40;99.90
29255;DHT22;16277;48.890;2.306;2023-08-17T05:46:37;23.40;99.90
29255;DHT22;16277;48.890;2.306;2023-08-17T06:01:43;23.30;99.90
29255;DHT22;16277;48.890;2.306;2023-08-17T06:16:47;22.80;99.90
29255;DHT22;16277;48.890;2.306;2023-08-17T06:31:52;23.10;99.90
29255;DHT22;16277;48.890;2.306;2023-08-17T06:46:58;22.20;99.90
29255;DHT22;16277;48.890;2.306;2023-08-17T07:02:03;23.20;99.90
29255;DHT22;16277;48.890;2.306;2023-08-17T07:17:08;23.40;99.90
29255;DHT22;16277;48.890;2.306;2023-08-17T07:32:12;23.60;99.90
29255;DHT22;16277;48.890;2.306;2023-08-17T07:47:17;23.60;99.90
29255;DHT22;16277;48.890;2.306;2023-08-17T08:02:21;23.80;99.90
29255;DHT22;16277;48.890;2.306;2023-08-17T08:17:26;23.60;99.90
29255;DHT22;16277;48.890;2.306;2023-08-17T08:32:31;23.60;99.90
29255;DHT22;16277;48.890;2.306;2023-08-17T08:47:36;23.90;99.90
29255;DHT22;16277;48.890;2.306;2023-08-17T09:02:41;24.10;99.90
29255;DHT22;16277;48.890;2.306;2023-08-17T09:17:46;24.20;99.90
29255;DHT22;16277;48.890;2.306;2023-08-17T09:32:52;24.30;99.90
29255;DHT22;16277;48.890;2.306;2023-08-17T09:47:58;24.40;99.90
29255;DHT22;16277;48.890;2.306;2023-08-17T10:03:06;24.60;99.90
29255;DHT22;16277;48.890;2.306;2023-08-17T10:18:15;24.90;99.90
29255;DHT22;16277;48.890;2.306;2023-08-17T10:33:21;25.10;99.90
29255;DHT22;16277;48.890;2.306;2023-08-17T10:48:27;25.30;99.90
29255;DHT22;16277;48.890;2.306;2023-08-17T11:03:32;25.60;99.90
29255;DHT22;16277;48.890;2.306;2023-08-17T11:18:39;26.00;99.90
29255;DHT22;16277;48.890;2.306;2023-08-17T11:33:44;25.90;99.90
29255;DHT22;16277;48.890;2.306;2023-08-17T11:48:50;26.00;99.90
29255;DHT22;16277;48.890;2.306;2023-08-17T12:03:56;26.40;99.90
29255;DHT22;16277;48.890;2.306;2023-08-17T12:19:01;26.40;99.90
29255;DHT22;16277;48.890;2.306;2023-08-17T12:34:07;26.80;99.90
29255;DHT22;16277;48.890;2.306;2023-08-17T12:49:12;27.50;99.90
29255;DHT22;16277;48.890;2.306;2023-08-17T13:04:17;27.10;99.90
29255;DHT22;16277;48.890;2.306;2023-08-17T13:19:21;27.40;99.90
29255;DHT22;16277;48.890;2.306;2023-08-17T13:34:25;27.30;99.90
29255;DHT22;16277;48.890;2.306;2023-08-17T13:49:30;27.80;99.90
29255;DHT22;16277;48.890;2.306;2023-08-17T14:04:34;30.70;99.90
29255;DHT22;16277;48.890;2.306;2023-08-17T14:19:39;33.70;92.40
29255;DHT22;16277;48.890;2.306;2023-08-17T14:35:02;33.90;90.30
29255;DHT22;16277;48.890;2.306;2023-08-17T14:50:07;33.60;90.50
29255;DHT22;16277;48.890;2.306;2023-08-17T15:05:12;33.90;87.40
29255;DHT22;16277;48.890;2.306;2023-08-17T15:20:16;33.90;86.00
29255;DHT22;16277;48.890;2.306;2023-08-17T15:35:21;33.60;87.50
29255;DHT22;16277;48.890;2.306;2023-08-17T15:50:26;33.60;88.30
29255;DHT22;16277;48.890;2.306;2023-08-17T16:05:30;32.70;90.60
29255;DHT22;16277;48.890;2.306;2023-08-17T16:20:35;32.70;91.30
29255;DHT22;16277;48.890;2.306;2023-08-17T16:35:40;32.40;90.50
29255;DHT22;16277;48.890;2.306;2023-08-17T16:50:44;32.10;90.90
29255;DHT22;16277;48.890;2.306;2023-08-17T17:05:49;32.00;90.70
29255;DHT22;16277;48.890;2.306;2023-08-17T17:20:53;31.40;93.10
29255;DHT22;16277;48.890;2.306;2023-08-17T17:35:58;31.00;94.40
29255;DHT22;16277;48.890;2.306;2023-08-17T17:51:02;30.50;95.20
29255;DHT22;16277;48.890;2.306;2023-08-17T18:06:07;30.20;95.60
29255;DHT22;16277;48.890;2.306;2023-08-17T18:21:11;29.90;96.10
29255;DHT22;16277;48.890;2.306;2023-08-17T18:36:16;29.70;96.60
29255;DHT22;16277;48.890;2.306;2023-08-17T18:51:20;29.40;97.30
29255;DHT22;16277;48.890;2.306;2023-08-17T19:06:25;29.00;97.70
29255;DHT22;16277;48.890;2.306;2023-08-17T19:21:29;28.80;97.80
29255;DHT22;16277;48.890;2.306;2023-08-17T19:36:34;28.50;98.40
29255;DHT22;16277;48.890;2.306;2023-08-17T19:51:38;28.30;98.80
29255;DHT22;16277;48.890;2.306;2023-08-17T20:06:43;28.10;99.50
29255;DHT22;16277;48.890;2.306;2023-08-17T20:21:50;27.90;99.90
29255;DHT22;16277;48.890;2.306;2023-08-17T20:36:55;27.70;99.90
29255;DHT22;16277;48.890;2.306;2023-08-17T20:51:59;27.50;99.90
29255;DHT22;16277;48.890;2.306;2023-08-17T21:07:04;27.40;99.90
29255;DHT22;16277;48.890;2.306;2023-08-17T21:22:09;27.20;99.90
29255;DHT22;16277;48.890;2.306;2023-08-17T21:37:23;27.00;99.90
29255;DHT22;16277;48.890;2.306;2023-08-17T21:52:29;26.70;99.90
29255;DHT22;16277;48.890;2.306;2023-08-17T22:07:34;26.60;99.90
29255;DHT22;16277;48.890;2.306;2023-08-17T22:22:38;26.50;99.90
29255;DHT22;16277;48.890;2.306;2023-08-17T22:38:01;26.40;99.90
29255;DHT22;16277;48.890;2.306;2023-08-17T22:53:06;26.20;99.90
29255;DHT22;16277;48.890;2.306;2023-08-17T23:08:10;26.10;99.90
29255;DHT22;16277;48.890;2.306;2023-08-17T23:23:15;26.00;99.90
29255;DHT22;16277;48.890;2.306;2023-08-17T23:38:20;25.80;99.90
29255;DHT22;16277;48.890;2.306;2023-08-17T23:53:24;25.80;99.90
